createdAt,value
2023-01-18T00:03:49.956Z,17.02
2023-01-18T00:06:18.275Z,15.98
2023-01-18T00:08:45.957Z,15.15
2023-01-18T00:11:16.018Z,16.95
2023-01-18T00:13:44.253Z,16.25
2023-01-18T00:16:15.888Z,15.73
2023-01-18T00:18:44.356Z,16.25
2023-01-18T00:21:12.803Z,16.50
2023-01-18T00:23:40.394Z,16.73
2023-01-18T00:26:10.452Z,16.25
2023-01-18T00:28:40.426Z,15.77
2023-01-18T00:31:17.078Z,16.00
2023-01-18T00:33:50.260Z,15.48
2023-01-18T00:36:18.803Z,15.50
2023-01-18T00:38:52.026Z,15.63
2023-01-18T00:41:21.623Z,15.38
2023-01-18T00:43:49.710Z,15.32
2023-01-18T00:46:25.575Z,16.52
2023-01-18T00:48:54.579Z,16.35
2023-01-18T00:51:24.853Z,16.20
2023-01-18T00:53:52.552Z,16.33
2023-01-18T00:56:22.645Z,14.68
2023-01-18T00:58:50.659Z,15.50
2023-01-18T01:01:18.573Z,17.00
2023-01-18T01:04:05.060Z,16.85
2023-01-18T01:06:44.833Z,16.45
2023-01-18T01:09:26.628Z,15.90
2023-01-18T01:12:14.471Z,15.73
2023-01-18T01:15:04.159Z,15.98
2023-01-18T01:17:53.762Z,15.55
2023-01-18T01:20:41.395Z,16.20
2023-01-18T01:23:34.031Z,16.60
2023-01-18T01:26:08.637Z,17.10
2023-01-18T01:28:39.957Z,16.33
2023-01-18T01:31:11.582Z,17.73
2023-01-18T01:33:40.223Z,19.38
2023-01-18T01:36:17.132Z,20.75
2023-01-18T01:38:45.784Z,20.67
2023-01-18T01:41:31.691Z,19.70
2023-01-18T01:44:28.282Z,20.48
2023-01-18T01:47:05.156Z,20.00
2023-01-18T01:49:42.817Z,20.27
2023-01-18T01:52:15.919Z,20.55
2023-01-18T01:54:53.377Z,19.20
2023-01-18T01:57:24.781Z,18.45
2023-01-18T02:00:02.496Z,18.45
2023-01-18T02:02:41.432Z,16.88
2023-01-18T02:05:13.707Z,17.05
2023-01-18T02:07:41.437Z,17.38
2023-01-18T02:10:10.474Z,16.63
2023-01-18T02:12:40.955Z,17.13
2023-01-18T02:15:09.925Z,16.73
2023-01-18T02:17:50.248Z,16.77
2023-01-18T02:20:47.514Z,17.05
2023-01-18T02:23:34.056Z,18.10
2023-01-18T02:26:31.859Z,18.73
2023-01-18T02:29:06.001Z,18.50
2023-01-18T02:31:44.256Z,19.83
2023-01-18T02:34:33.917Z,19.83
2023-01-18T02:39:47.865Z,18.02
2023-01-18T02:42:39.736Z,18.42
2023-01-18T02:45:49.579Z,18.77
2023-01-18T02:48:20.640Z,19.00
2023-01-18T02:50:48.430Z,21.17
2023-01-18T02:53:16.351Z,21.27
2023-01-18T02:55:56.389Z,21.08
2023-01-18T02:58:29.863Z,20.83
2023-01-18T03:01:06.209Z,19.52
2023-01-18T03:03:35.399Z,17.95
2023-01-18T03:06:06.831Z,18.63
2023-01-18T03:08:53.461Z,16.63
2023-01-18T03:11:24.291Z,17.67
2023-01-18T03:13:58.048Z,15.32
2023-01-18T03:16:59.773Z,16.52
2023-01-18T03:20:05.796Z,16.88
2023-01-18T03:22:56.913Z,15.82
2023-01-18T03:25:41.383Z,15.38
2023-01-18T03:28:42.287Z,15.15
2023-01-18T03:31:35.475Z,14.85
2023-01-18T03:34:14.384Z,15.45
2023-01-18T03:36:48.895Z,14.95
2023-01-18T03:39:28.503Z,14.95
2023-01-18T03:42:00.854Z,15.80
2023-01-18T03:45:00.022Z,15.13
2023-01-18T03:47:27.682Z,15.35
2023-01-18T03:49:55.602Z,14.80
2023-01-18T03:52:37.789Z,15.05
2023-01-18T03:55:12.875Z,14.50
2023-01-18T03:57:45.832Z,14.05
2023-01-18T04:00:14.965Z,14.00
2023-01-18T04:02:45.423Z,15.05
2023-01-18T04:05:13.580Z,14.23
2023-01-18T04:07:41.503Z,14.27
2023-01-18T04:10:10.380Z,14.32
2023-01-18T04:12:38.278Z,14.73
2023-01-18T04:15:06.428Z,14.85
2023-01-18T04:17:34.204Z,14.63
2023-01-18T04:20:02.119Z,14.25
2023-01-18T04:22:30.315Z,15.27
2023-01-18T04:24:57.856Z,13.38
2023-01-18T04:27:25.755Z,14.48
2023-01-18T04:29:53.444Z,13.18
2023-01-18T04:32:21.048Z,14.93
2023-01-18T04:34:48.566Z,13.73
2023-01-18T04:37:16.122Z,13.60
2023-01-18T04:39:43.570Z,13.40
2023-01-18T04:42:11.138Z,13.82
2023-01-18T04:44:38.920Z,12.82
2023-01-18T04:47:06.358Z,14.20
2023-01-18T04:49:34.094Z,13.07
2023-01-18T04:52:01.769Z,13.20
2023-01-18T04:54:30.544Z,13.90
2023-01-18T04:56:58.178Z,13.73
2023-01-18T04:59:25.852Z,13.50
2023-01-18T05:01:56.460Z,13.00
2023-01-18T05:04:24.072Z,14.57
2023-01-18T05:06:51.763Z,13.57
2023-01-18T05:09:20.121Z,14.57
2023-01-18T05:11:48.291Z,13.60
2023-01-18T05:14:15.941Z,15.63
2023-01-18T05:16:43.689Z,13.75
2023-01-18T05:19:11.294Z,13.55
2023-01-18T05:21:38.812Z,13.82
2023-01-18T05:24:06.798Z,13.23
2023-01-18T05:26:34.358Z,13.75
2023-01-18T05:29:01.863Z,13.93
2023-01-18T05:31:29.469Z,13.48
2023-01-18T05:33:57.690Z,14.13
2023-01-18T05:36:25.373Z,14.32
2023-01-18T05:38:52.944Z,13.63
2023-01-18T05:41:21.619Z,13.35
2023-01-18T05:43:49.689Z,13.65
2023-01-18T05:46:17.627Z,14.35
2023-01-18T05:48:45.470Z,13.75
2023-01-18T05:51:13.123Z,13.77
2023-01-18T05:53:41.299Z,13.60
2023-01-18T05:56:09.750Z,14.45
2023-01-18T05:58:38.418Z,13.43
2023-01-18T06:01:08.679Z,14.02
2023-01-18T06:03:37.180Z,14.45
2023-01-18T06:06:04.831Z,14.77
2023-01-18T06:08:33.128Z,14.98
2023-01-18T06:11:00.675Z,15.90
2023-01-18T06:13:31.130Z,15.05
2023-01-18T06:16:00.417Z,15.88
2023-01-18T06:21:01.198Z,14.60
2023-01-18T06:23:30.173Z,15.43
2023-01-18T06:25:58.064Z,16.17
2023-01-18T06:28:30.777Z,16.63
2023-01-18T06:30:59.008Z,15.93
2023-01-18T06:33:26.548Z,15.73
2023-01-18T06:35:54.336Z,16.75
2023-01-18T06:38:21.914Z,17.20
2023-01-18T06:40:49.630Z,17.25
2023-01-18T06:43:17.073Z,17.77
2023-01-18T06:45:44.864Z,19.35
2023-01-18T06:48:12.626Z,19.00
2023-01-18T06:50:40.154Z,19.33
2023-01-18T06:53:07.709Z,17.05
2023-01-18T06:55:35.838Z,19.42
2023-01-18T06:58:03.394Z,17.48
2023-01-18T07:00:31.469Z,17.30
2023-01-18T07:02:59.738Z,19.05
2023-01-18T07:05:27.760Z,19.80
2023-01-18T07:07:55.368Z,19.50
2023-01-18T07:10:22.957Z,19.38
2023-01-18T07:12:51.006Z,18.90
2023-01-18T07:15:22.869Z,16.85
2023-01-18T07:17:50.956Z,16.90
2023-01-18T07:20:20.039Z,17.70
2023-01-18T07:22:52.743Z,15.60
2023-01-18T07:25:20.920Z,19.33
2023-01-18T07:27:49.195Z,17.38
2023-01-18T07:30:17.636Z,17.27
2023-01-18T07:32:51.891Z,15.07
2023-01-18T07:35:22.304Z,15.02
2023-01-18T07:37:52.330Z,15.52
2023-01-18T07:40:21.697Z,14.57
2023-01-18T07:42:56.274Z,13.25
2023-01-18T07:45:24.455Z,12.50
2023-01-18T07:47:53.486Z,12.60
2023-01-18T07:50:22.541Z,11.98
2023-01-18T07:52:50.122Z,13.02
2023-01-18T07:55:17.647Z,12.80
2023-01-18T07:57:45.242Z,13.57
2023-01-18T08:00:14.810Z,13.32
2023-01-18T08:02:42.779Z,12.55
2023-01-18T08:05:10.844Z,12.48
2023-01-18T08:07:39.522Z,12.90
2023-01-18T08:10:16.735Z,12.20
2023-01-18T08:13:10.328Z,12.60
2023-01-18T08:15:40.912Z,12.60
2023-01-18T08:18:09.099Z,12.30
2023-01-18T08:20:36.750Z,12.45
2023-01-18T08:26:26.244Z,11.63
2023-01-18T08:28:58.504Z,12.82
2023-01-18T08:31:26.413Z,12.05
2023-01-18T08:33:54.165Z,12.95
2023-01-18T08:36:24.204Z,12.32
2023-01-18T08:38:55.358Z,12.27
2023-01-18T08:41:33.467Z,11.98
2023-01-18T08:44:01.147Z,12.80
2023-01-18T08:46:29.173Z,12.18
2023-01-18T08:48:59.403Z,12.25
2023-01-18T08:51:27.932Z,13.93
2023-01-18T08:53:57.462Z,13.23
2023-01-18T08:56:25.801Z,14.25
2023-01-18T08:58:54.002Z,13.48
2023-01-18T09:01:23.849Z,13.63
2023-01-18T09:03:55.268Z,11.98
2023-01-18T09:06:23.439Z,13.63
2023-01-18T09:08:51.103Z,14.20
2023-01-18T09:11:18.897Z,12.63
2023-01-18T09:13:59.853Z,12.20
2023-01-18T09:16:29.732Z,13.35
2023-01-18T09:19:01.450Z,12.82
2023-01-18T09:21:29.392Z,12.25
2023-01-18T09:23:57.981Z,12.90
2023-01-18T09:26:25.788Z,13.02
2023-01-18T09:28:54.017Z,12.25
2023-01-18T09:31:25.359Z,12.25
2023-01-18T09:33:54.255Z,12.07
2023-01-18T09:36:26.763Z,14.05
2023-01-18T09:38:55.920Z,12.77
2023-01-18T09:41:33.248Z,16.00
2023-01-18T09:44:28.802Z,13.85
2023-01-18T09:47:19.908Z,12.90
2023-01-18T09:49:55.415Z,13.13
2023-01-18T09:52:32.042Z,13.35
2023-01-18T09:55:28.898Z,14.70
2023-01-18T09:58:19.245Z,13.95
2023-01-18T10:00:49.376Z,14.52
2023-01-18T10:03:29.291Z,14.30
2023-01-18T10:06:09.018Z,14.27
2023-01-18T10:09:04.835Z,13.57
2023-01-18T10:11:58.163Z,13.65
2023-01-18T10:14:53.382Z,13.43
2023-01-18T10:17:24.202Z,13.85
2023-01-18T10:19:52.061Z,14.73
2023-01-18T10:22:25.512Z,14.88
2023-01-18T10:25:32.775Z,14.75
2023-01-18T10:28:09.915Z,14.00
2023-01-18T10:30:49.175Z,13.88
2023-01-18T10:33:27.608Z,13.60
2023-01-18T10:36:11.665Z,14.50
2023-01-18T10:38:41.411Z,13.38
2023-01-18T10:41:18.897Z,14.10
2023-01-18T10:43:47.548Z,13.43
2023-01-18T10:46:18.927Z,13.70
2023-01-18T10:48:52.037Z,14.13
2023-01-18T10:51:35.362Z,13.88
2023-01-18T10:54:17.928Z,12.20
2023-01-18T10:56:45.561Z,12.95
2023-01-18T10:59:30.839Z,14.50
2023-01-18T11:01:58.744Z,13.70
2023-01-18T11:04:32.887Z,14.25
2023-01-18T11:07:03.569Z,12.70
2023-01-18T11:09:42.149Z,13.93
2023-01-18T11:12:41.497Z,13.93
2023-01-18T11:15:15.922Z,13.93
2023-01-18T11:18:00.503Z,14.30
2023-01-18T15:07:01.257Z,12.07
2023-01-18T15:09:32.784Z,12.60
2023-01-18T15:12:04.614Z,13.30
2023-01-18T15:14:37.287Z,13.88
2023-01-18T15:17:11.646Z,13.13
2023-01-18T15:19:44.371Z,14.13
2023-01-18T15:22:15.436Z,14.02
2023-01-18T15:24:45.468Z,13.65
2023-01-18T15:27:20.665Z,13.80
2023-01-18T15:29:55.222Z,14.23
2023-01-18T15:32:29.183Z,13.45
2023-01-18T15:34:58.487Z,14.07
2023-01-18T15:37:32.760Z,14.13
2023-01-18T15:40:12.655Z,14.27
2023-01-18T15:43:04.242Z,13.20
2023-01-18T15:45:39.552Z,13.00
2023-01-18T15:48:13.669Z,12.80
2023-01-18T15:50:46.874Z,13.57
2023-01-18T15:53:20.267Z,13.20
2023-01-18T15:55:50.044Z,14.40
2023-01-18T15:58:43.255Z,13.60
2023-01-18T16:01:13.837Z,12.90
2023-01-18T16:03:56.678Z,13.70
2023-01-18T16:06:24.789Z,13.23
2023-01-18T16:08:56.920Z,14.32
2023-01-18T16:11:57.075Z,14.27
2023-01-18T16:14:27.957Z,14.35
2023-01-18T16:17:07.313Z,15.82
2023-01-18T16:19:43.159Z,13.60
2023-01-18T16:22:24.512Z,13.30
2023-01-18T16:24:56.433Z,15.38
2023-01-18T16:27:29.508Z,14.10
2023-01-18T16:30:05.906Z,12.50
2023-01-18T16:32:36.029Z,13.30
2023-01-18T16:35:23.767Z,14.75
2023-01-18T16:37:52.148Z,14.43
2023-01-18T16:40:23.189Z,14.48
2023-01-18T16:43:20.145Z,14.38
2023-01-18T16:45:50.692Z,16.10
2023-01-18T16:48:23.860Z,15.13
2023-01-18T16:51:00.536Z,16.05
2023-01-18T16:53:29.179Z,14.65
2023-01-18T16:55:56.860Z,15.07
2023-01-18T16:58:24.622Z,14.85
2023-01-18T17:01:01.059Z,16.73
2023-01-18T17:03:29.190Z,17.98
2023-01-18T17:05:57.426Z,17.30
2023-01-18T17:08:25.004Z,16.73
2023-01-18T17:10:54.649Z,15.32
2023-01-18T17:15:53.329Z,15.80
2023-01-18T17:18:25.638Z,15.88
2023-01-18T17:20:54.175Z,16.77
2023-01-18T17:23:25.742Z,16.05
2023-01-18T17:25:53.804Z,16.42
2023-01-18T17:28:21.491Z,16.33
2023-01-18T17:30:50.331Z,17.85
2023-01-18T17:33:23.926Z,16.58
2023-01-18T17:35:53.978Z,16.00
2023-01-18T17:38:24.599Z,16.77
2023-01-18T17:40:53.531Z,16.95
2023-01-18T17:43:33.298Z,15.18
2023-01-18T17:46:06.446Z,15.25
2023-01-18T17:48:35.009Z,15.43
2023-01-18T17:51:08.814Z,14.48
2023-01-18T17:53:41.038Z,15.60
2023-01-18T17:56:14.827Z,15.25
2023-01-18T17:58:46.308Z,15.63
2023-01-18T18:01:15.498Z,14.63
2023-01-18T18:06:26.017Z,14.85
2023-01-18T18:08:58.038Z,15.80
2023-01-18T18:11:25.679Z,15.55
2023-01-18T18:13:53.450Z,15.52
2023-01-18T18:16:23.901Z,14.90
2023-01-18T18:18:51.527Z,15.10
2023-01-18T18:21:19.514Z,15.10
2023-01-18T18:23:47.112Z,13.63
2023-01-18T18:26:14.651Z,14.60
2023-01-18T18:28:42.159Z,14.52
2023-01-18T18:31:15.283Z,15.13
2023-01-18T18:33:43.564Z,14.88
2023-01-18T18:36:11.170Z,15.02
2023-01-18T18:38:38.763Z,15.05
2023-01-18T18:41:08.632Z,14.57
2023-01-18T18:43:36.225Z,15.00
2023-01-18T18:46:03.832Z,16.63
2023-01-18T18:48:31.440Z,18.40
2023-01-18T18:50:59.229Z,18.00
2023-01-18T18:53:37.659Z,16.95
2023-01-18T18:56:09.593Z,17.42
2023-01-18T18:58:39.021Z,15.35
2023-01-18T19:01:07.982Z,17.70
2023-01-18T19:03:36.061Z,16.27
2023-01-18T19:06:04.194Z,16.33
2023-01-18T19:08:31.775Z,17.58
2023-01-18T19:11:01.961Z,16.17
2023-01-18T19:13:29.728Z,17.08
2023-01-18T19:15:57.323Z,19.00
2023-01-18T19:18:24.944Z,16.27
2023-01-18T19:20:53.547Z,18.15
2023-01-18T19:23:21.680Z,18.17
2023-01-18T19:25:50.190Z,18.92
2023-01-18T19:28:18.479Z,17.42
2023-01-18T19:30:46.196Z,15.35
2023-01-18T19:33:14.476Z,15.85
2023-01-18T19:35:45.710Z,16.20
2023-01-18T19:38:13.735Z,15.95
2023-01-18T19:40:41.593Z,14.68
2023-01-18T19:43:09.361Z,15.45
2023-01-18T19:45:37.634Z,15.45
2023-01-18T19:48:05.687Z,15.15
2023-01-18T19:50:33.293Z,15.20
2023-01-18T19:53:01.106Z,14.93
2023-01-18T19:55:28.960Z,17.58
2023-01-18T19:57:57.113Z,15.05
2023-01-18T20:00:24.678Z,16.25
2023-01-18T20:02:53.332Z,15.85
2023-01-18T20:05:21.026Z,16.03
2023-01-18T20:07:48.611Z,16.08
2023-01-18T20:10:20.337Z,13.85
2023-01-18T20:12:49.423Z,16.42
2023-01-18T20:15:18.650Z,14.18
2023-01-18T20:17:47.115Z,15.32
2023-01-18T20:20:24.264Z,15.25
2023-01-18T20:22:59.141Z,14.48
2023-01-18T20:25:26.872Z,14.43
2023-01-18T20:27:54.523Z,14.63
2023-01-18T20:30:22.157Z,14.48
2023-01-18T20:32:50.007Z,14.68
2023-01-18T20:35:17.656Z,15.40
2023-01-18T20:37:45.226Z,15.10
2023-01-18T20:40:12.998Z,14.10
2023-01-18T20:42:40.975Z,14.80
2023-01-18T20:45:09.353Z,15.85
2023-01-18T20:47:36.991Z,14.55
2023-01-18T20:50:05.274Z,15.55
2023-01-18T20:52:32.904Z,14.52
2023-01-18T20:55:00.751Z,15.43
2023-01-18T20:57:35.009Z,15.50
2023-01-18T21:00:06.386Z,16.25
2023-01-18T21:02:34.248Z,17.17
2023-01-18T21:05:01.829Z,15.48
2023-01-18T21:07:33.195Z,16.75
2023-01-18T21:10:01.688Z,16.13
2023-01-18T21:12:29.645Z,14.98
2023-01-18T21:14:57.198Z,16.23
2023-01-18T21:17:24.963Z,18.60
2023-01-18T21:19:53.409Z,20.55
2023-01-18T21:22:21.090Z,15.80
2023-01-18T21:24:48.982Z,17.38
2023-01-18T21:27:17.152Z,17.13
2023-01-18T21:29:44.840Z,14.35
2023-01-18T21:32:12.504Z,15.70
2023-01-18T21:34:40.078Z,15.07
2023-01-18T21:37:07.654Z,14.25
2023-01-18T21:39:35.168Z,14.38
2023-01-18T21:42:21.567Z,14.52
2023-01-18T21:45:08.328Z,14.55
2023-01-18T21:47:36.061Z,14.82
2023-01-18T21:50:22.583Z,13.68
2023-01-18T21:53:22.334Z,13.38
2023-01-18T21:55:52.171Z,13.85
2023-01-18T21:58:38.034Z,14.02
2023-01-18T22:01:14.646Z,14.80
2023-01-18T22:03:43.151Z,14.70
2023-01-18T22:06:12.252Z,14.63
2023-01-18T22:08:41.843Z,13.88
2023-01-18T22:11:09.509Z,13.52
2023-01-18T22:13:37.247Z,13.13
2023-01-18T22:16:07.061Z,14.15
2023-01-18T22:18:34.874Z,14.15
2023-01-18T22:21:02.612Z,14.25
2023-01-18T22:23:30.295Z,13.73
2023-01-18T22:25:59.509Z,13.07
2023-01-18T22:28:28.249Z,13.38
2023-01-18T22:30:56.214Z,13.30
2023-01-18T22:33:24.825Z,14.30
2023-01-18T22:35:58.253Z,13.23
2023-01-18T22:38:26.653Z,13.40
2023-01-18T22:41:10.297Z,13.07
2023-01-18T22:43:39.366Z,12.90
2023-01-18T22:46:08.265Z,12.07
2023-01-18T22:48:37.696Z,12.65
2023-01-18T22:51:07.496Z,12.57
2023-01-18T22:56:03.591Z,13.10
2023-01-18T22:58:32.276Z,12.50
2023-01-18T23:00:59.826Z,13.95
2023-01-18T23:03:27.830Z,12.70
2023-01-18T23:06:00.567Z,13.00
2023-01-18T23:08:38.464Z,17.65
2023-01-18T23:11:10.928Z,12.68
2023-01-18T23:13:40.127Z,17.17
2023-01-18T23:16:28.990Z,12.95
2023-01-18T23:18:56.805Z,13.52
2023-01-18T23:21:24.686Z,12.02
2023-01-18T23:23:52.257Z,12.10
2023-01-18T23:26:20.073Z,12.05
2023-01-18T23:28:47.665Z,12.77
2023-01-18T23:31:17.808Z,12.73
2023-01-18T23:33:47.939Z,12.70
2023-01-18T23:36:18.544Z,12.27
2023-01-18T23:39:04.943Z,12.73
2023-01-18T23:41:51.657Z,12.27
2023-01-18T23:44:37.805Z,13.70
2023-01-18T23:47:23.929Z,16.25
2023-01-18T23:50:10.108Z,17.25
2023-01-18T23:52:57.289Z,14.63
2023-01-18T23:55:24.943Z,14.38
2023-01-18T23:57:52.861Z,12.90
